sensor_id;sensor_type;location;lat;lon;timestamp;P1;durP1;ratioP1;P2;durP2;ratioP2
24159;SDS011;62385;41.594;23.808;2024-03-06T00:01:52;0.20;;;0.00;;
24159;SDS011;62385;41.594;23.808;2024-03-06T00:07:00;0.33;;;0.30;;
24159;SDS011;62385;41.594;23.808;2024-03-06T00:09:26;0.50;;;0.50;;
24159;SDS011;62385;41.594;23.808;2024-03-06T00:11:52;0.80;;;0.40;;
24159;SDS011;62385;41.594;23.808;2024-03-06T00:14:19;3.13;;;1.13;;
24159;SDS011;62385;41.594;23.808;2024-03-06T00:16:47;0.43;;;0.20;;
24159;SDS011;62385;41.594;23.808;2024-03-06T00:19:15;0.73;;;0.73;;
24159;SDS011;62385;41.594;23.808;2024-03-06T00:21:44;2.77;;;1.30;;
24159;SDS011;62385;41.594;23.808;2024-03-06T00:24:14;1.07;;;0.67;;
24159;SDS011;62385;41.594;23.808;2024-03-06T00:29:16;3.90;;;0.77;;
24159;SDS011;62385;41.594;23.808;2024-03-06T00:31:42;0.20;;;0.00;;
24159;SDS011;62385;41.594;23.808;2024-03-06T00:34:09;0.20;;;0.00;;
24159;SDS011;62385;41.594;23.808;2024-03-06T00:36:37;0.20;;;0.10;;
24159;SDS011;62385;41.594;23.808;2024-03-06T00:39:03;0.30;;;0.20;;
24159;SDS011;62385;41.594;23.808;2024-03-06T00:41:30;0.20;;;0.10;;
24159;SDS011;62385;41.594;23.808;2024-03-06T00:43:59;0.30;;;0.23;;
24159;SDS011;62385;41.594;23.808;2024-03-06T00:46:24;3.00;;;0.60;;
24159;SDS011;62385;41.594;23.808;2024-03-06T00:48:50;0.70;;;0.20;;
24159;SDS011;62385;41.594;23.808;2024-03-06T00:51:16;0.30;;;0.23;;
24159;SDS011;62385;41.594;23.808;2024-03-06T00:53:41;1.33;;;0.87;;
24159;SDS011;62385;41.594;23.808;2024-03-06T00:56:07;0.37;;;0.37;;
24159;SDS011;62385;41.594;23.808;2024-03-06T00:58:33;0.40;;;0.40;;
24159;SDS011;62385;41.594;23.808;2024-03-06T01:00:58;0.20;;;0.03;;
24159;SDS011;62385;41.594;23.808;2024-03-06T01:03:24;0.40;;;0.37;;
24159;SDS011;62385;41.594;23.808;2024-03-06T01:05:50;0.20;;;0.07;;
24159;SDS011;62385;41.594;23.808;2024-03-06T01:08:17;0.43;;;0.37;;
24159;SDS011;62385;41.594;23.808;2024-03-06T01:10:43;0.27;;;0.20;;
24159;SDS011;62385;41.594;23.808;2024-03-06T01:13:09;0.30;;;0.30;;
24159;SDS011;62385;41.594;23.808;2024-03-06T01:15:36;0.20;;;0.00;;
24159;SDS011;62385;41.594;23.808;2024-03-06T01:18:02;0.40;;;0.33;;
24159;SDS011;62385;41.594;23.808;2024-03-06T01:20:28;0.30;;;0.20;;
24159;SDS011;62385;41.594;23.808;2024-03-06T01:22:54;0.20;;;0.00;;
24159;SDS011;62385;41.594;23.808;2024-03-06T01:25:19;0.20;;;0.20;;
24159;SDS011;62385;41.594;23.808;2024-03-06T01:27:47;0.50;;;0.50;;
24159;SDS011;62385;41.594;23.808;2024-03-06T01:30:14;0.20;;;0.10;;
24159;SDS011;62385;41.594;23.808;2024-03-06T01:32:40;0.20;;;0.20;;
24159;SDS011;62385;41.594;23.808;2024-03-06T01:35:06;0.30;;;0.20;;
24159;SDS011;62385;41.594;23.808;2024-03-06T01:37:32;0.20;;;0.00;;
24159;SDS011;62385;41.594;23.808;2024-03-06T01:39:57;0.20;;;0.00;;
24159;SDS011;62385;41.594;23.808;2024-03-06T01:42:23;1.47;;;0.47;;
24159;SDS011;62385;41.594;23.808;2024-03-06T01:44:49;0.40;;;0.23;;
24159;SDS011;62385;41.594;23.808;2024-03-06T01:47:15;0.20;;;0.10;;
24159;SDS011;62385;41.594;23.808;2024-03-06T01:49:41;0.20;;;0.13;;
24159;SDS011;62385;41.594;23.808;2024-03-06T01:52:07;0.20;;;0.20;;
24159;SDS011;62385;41.594;23.808;2024-03-06T01:54:37;0.20;;;0.00;;
24159;SDS011;62385;41.594;23.808;2024-03-06T01:57:03;0.20;;;0.00;;
24159;SDS011;62385;41.594;23.808;2024-03-06T01:59:31;0.20;;;0.10;;
24159;SDS011;62385;41.594;23.808;2024-03-06T02:01:57;0.20;;;0.00;;
24159;SDS011;62385;41.594;23.808;2024-03-06T02:04:23;1.13;;;0.50;;
24159;SDS011;62385;41.594;23.808;2024-03-06T02:06:53;0.40;;;0.37;;
24159;SDS011;62385;41.594;23.808;2024-03-06T02:09:19;0.50;;;0.30;;
24159;SDS011;62385;41.594;23.808;2024-03-06T02:11:45;0.20;;;0.00;;
24159;SDS011;62385;41.594;23.808;2024-03-06T02:14:11;0.20;;;0.00;;
24159;SDS011;62385;41.594;23.808;2024-03-06T02:16:37;0.20;;;0.10;;
24159;SDS011;62385;41.594;23.808;2024-03-06T02:19:06;0.20;;;0.10;;
24159;SDS011;62385;41.594;23.808;2024-03-06T02:21:31;0.20;;;0.00;;
24159;SDS011;62385;41.594;23.808;2024-03-06T02:23:57;0.20;;;0.10;;
24159;SDS011;62385;41.594;23.808;2024-03-06T02:26:23;0.93;;;0.87;;
24159;SDS011;62385;41.594;23.808;2024-03-06T02:28:49;0.20;;;0.00;;
24159;SDS011;62385;41.594;23.808;2024-03-06T02:31:16;0.20;;;0.00;;
24159;SDS011;62385;41.594;23.808;2024-03-06T02:33:45;0.20;;;0.10;;
24159;SDS011;62385;41.594;23.808;2024-03-06T02:36:12;0.20;;;0.10;;
24159;SDS011;62385;41.594;23.808;2024-03-06T02:38:38;0.20;;;0.10;;
24159;SDS011;62385;41.594;23.808;2024-03-06T02:41:04;0.20;;;0.10;;
24159;SDS011;62385;41.594;23.808;2024-03-06T02:43:31;0.20;;;0.00;;
24159;SDS011;62385;41.594;23.808;2024-03-06T02:46:00;0.20;;;0.03;;
24159;SDS011;62385;41.594;23.808;2024-03-06T02:48:26;0.20;;;0.00;;
24159;SDS011;62385;41.594;23.808;2024-03-06T02:50:51;0.40;;;0.30;;
24159;SDS011;62385;41.594;23.808;2024-03-06T02:53:17;0.20;;;0.00;;
24159;SDS011;62385;41.594;23.808;2024-03-06T02:55:43;0.20;;;0.00;;
24159;SDS011;62385;41.594;23.808;2024-03-06T02:58:08;0.63;;;0.40;;
24159;SDS011;62385;41.594;23.808;2024-03-06T03:00:34;0.20;;;0.00;;
24159;SDS011;62385;41.594;23.808;2024-03-06T03:03:00;0.20;;;0.00;;
24159;SDS011;62385;41.594;23.808;2024-03-06T03:05:25;0.33;;;0.23;;
24159;SDS011;62385;41.594;23.808;2024-03-06T03:07:51;0.20;;;0.20;;
24159;SDS011;62385;41.594;23.808;2024-03-06T03:10:17;0.20;;;0.03;;
24159;SDS011;62385;41.594;23.808;2024-03-06T03:12:43;0.20;;;0.07;;
24159;SDS011;62385;41.594;23.808;2024-03-06T03:15:09;1.40;;;1.00;;
24159;SDS011;62385;41.594;23.808;2024-03-06T03:17:35;0.20;;;0.00;;
24159;SDS011;62385;41.594;23.808;2024-03-06T03:20:02;0.93;;;0.43;;
24159;SDS011;62385;41.594;23.808;2024-03-06T03:22:37;0.73;;;0.60;;
24159;SDS011;62385;41.594;23.808;2024-03-06T03:25:14;0.20;;;0.00;;
24159;SDS011;62385;41.594;23.808;2024-03-06T03:27:40;0.20;;;0.00;;
24159;SDS011;62385;41.594;23.808;2024-03-06T03:30:07;0.20;;;0.10;;
24159;SDS011;62385;41.594;23.808;2024-03-06T03:32:34;0.20;;;0.10;;
24159;SDS011;62385;41.594;23.808;2024-03-06T03:34:59;0.20;;;0.00;;
24159;SDS011;62385;41.594;23.808;2024-03-06T03:37:25;0.20;;;0.07;;
24159;SDS011;62385;41.594;23.808;2024-03-06T03:39:51;0.23;;;0.07;;
24159;SDS011;62385;41.594;23.808;2024-03-06T03:42:17;0.20;;;0.00;;
24159;SDS011;62385;41.594;23.808;2024-03-06T03:44:42;0.20;;;0.00;;
24159;SDS011;62385;41.594;23.808;2024-03-06T03:47:08;0.20;;;0.00;;
24159;SDS011;62385;41.594;23.808;2024-03-06T03:49:34;0.33;;;0.33;;
24159;SDS011;62385;41.594;23.808;2024-03-06T03:52:00;0.20;;;0.00;;
24159;SDS011;62385;41.594;23.808;2024-03-06T03:54:25;0.20;;;0.00;;
24159;SDS011;62385;41.594;23.808;2024-03-06T03:56:51;0.20;;;0.00;;
24159;SDS011;62385;41.594;23.808;2024-03-06T03:59:17;0.20;;;0.00;;
24159;SDS011;62385;41.594;23.808;2024-03-06T04:01:44;0.20;;;0.00;;
24159;SDS011;62385;41.594;23.808;2024-03-06T04:04:12;0.30;;;0.13;;
24159;SDS011;62385;41.594;23.808;2024-03-06T04:06:38;0.60;;;0.40;;
24159;SDS011;62385;41.594;23.808;2024-03-06T04:09:04;0.70;;;0.70;;
24159;SDS011;62385;41.594;23.808;2024-03-06T04:11:36;1.90;;;1.07;;
24159;SDS011;62385;41.594;23.808;2024-03-06T04:14:03;0.93;;;0.93;;
24159;SDS011;62385;41.594;23.808;2024-03-06T04:16:29;0.30;;;0.27;;
24159;SDS011;62385;41.594;23.808;2024-03-06T04:18:55;0.20;;;0.00;;
24159;SDS011;62385;41.594;23.808;2024-03-06T04:21:21;0.50;;;0.50;;
24159;SDS011;62385;41.594;23.808;2024-03-06T04:23:47;0.97;;;0.67;;
24159;SDS011;62385;41.594;23.808;2024-03-06T04:26:14;0.43;;;0.40;;
24159;SDS011;62385;41.594;23.808;2024-03-06T04:28:39;0.83;;;0.73;;
24159;SDS011;62385;41.594;23.808;2024-03-06T04:31:05;0.30;;;0.20;;
24159;SDS011;62385;41.594;23.808;2024-03-06T04:33:31;0.30;;;0.30;;
24159;SDS011;62385;41.594;23.808;2024-03-06T04:35:57;0.63;;;0.40;;
24159;SDS011;62385;41.594;23.808;2024-03-06T04:38:22;0.97;;;0.33;;
24159;SDS011;62385;41.594;23.808;2024-03-06T04:40:48;1.03;;;0.93;;
24159;SDS011;62385;41.594;23.808;2024-03-06T04:43:13;0.83;;;0.67;;
24159;SDS011;62385;41.594;23.808;2024-03-06T04:45:39;0.20;;;0.20;;
24159;SDS011;62385;41.594;23.808;2024-03-06T04:48:05;0.70;;;0.70;;
24159;SDS011;62385;41.594;23.808;2024-03-06T04:50:31;1.60;;;1.03;;
24159;SDS011;62385;41.594;23.808;2024-03-06T04:52:57;1.73;;;1.37;;
24159;SDS011;62385;41.594;23.808;2024-03-06T04:55:23;1.43;;;0.70;;
24159;SDS011;62385;41.594;23.808;2024-03-06T04:57:51;0.20;;;0.10;;
24159;SDS011;62385;41.594;23.808;2024-03-06T05:00:18;2.33;;;1.50;;
24159;SDS011;62385;41.594;23.808;2024-03-06T05:02:43;1.87;;;1.63;;
24159;SDS011;62385;41.594;23.808;2024-03-06T05:05:09;1.50;;;1.07;;
24159;SDS011;62385;41.594;23.808;2024-03-06T05:07:35;1.60;;;0.50;;
24159;SDS011;62385;41.594;23.808;2024-03-06T05:10:00;3.23;;;1.27;;
24159;SDS011;62385;41.594;23.808;2024-03-06T05:12:26;0.90;;;0.77;;
24159;SDS011;62385;41.594;23.808;2024-03-06T05:14:53;0.83;;;0.83;;
24159;SDS011;62385;41.594;23.808;2024-03-06T05:17:19;3.90;;;2.27;;
24159;SDS011;62385;41.594;23.808;2024-03-06T05:19:45;7.40;;;5.03;;
24159;SDS011;62385;41.594;23.808;2024-03-06T05:22:13;11.07;;;7.30;;
24159;SDS011;62385;41.594;23.808;2024-03-06T05:24:39;12.17;;;6.57;;
24159;SDS011;62385;41.594;23.808;2024-03-06T05:27:05;7.63;;;5.90;;
24159;SDS011;62385;41.594;23.808;2024-03-06T05:29:31;10.50;;;7.37;;
24159;SDS011;62385;41.594;23.808;2024-03-06T05:31:56;6.17;;;3.63;;
24159;SDS011;62385;41.594;23.808;2024-03-06T05:34:22;4.13;;;2.73;;
24159;SDS011;62385;41.594;23.808;2024-03-06T05:36:48;1.00;;;0.90;;
24159;SDS011;62385;41.594;23.808;2024-03-06T05:39:14;1.73;;;1.63;;
24159;SDS011;62385;41.594;23.808;2024-03-06T05:41:40;2.70;;;2.50;;
24159;SDS011;62385;41.594;23.808;2024-03-06T05:44:07;2.27;;;1.30;;
24159;SDS011;62385;41.594;23.808;2024-03-06T05:46:33;2.47;;;1.23;;
24159;SDS011;62385;41.594;23.808;2024-03-06T05:48:59;2.17;;;1.97;;
24159;SDS011;62385;41.594;23.808;2024-03-06T05:51:26;3.60;;;2.27;;
24159;SDS011;62385;41.594;23.808;2024-03-06T05:53:53;0.27;;;0.27;;
24159;SDS011;62385;41.594;23.808;2024-03-06T05:56:18;1.00;;;0.90;;
24159;SDS011;62385;41.594;23.808;2024-03-06T05:58:44;0.67;;;0.67;;
24159;SDS011;62385;41.594;23.808;2024-03-06T06:01:13;0.60;;;0.50;;
24159;SDS011;62385;41.594;23.808;2024-03-06T06:03:41;0.47;;;0.47;;
24159;SDS011;62385;41.594;23.808;2024-03-06T06:06:07;2.77;;;0.97;;
24159;SDS011;62385;41.594;23.808;2024-03-06T06:08:33;3.07;;;1.87;;
24159;SDS011;62385;41.594;23.808;2024-03-06T06:11:00;0.87;;;0.87;;
24159;SDS011;62385;41.594;23.808;2024-03-06T06:13:28;0.90;;;0.90;;
24159;SDS011;62385;41.594;23.808;2024-03-06T06:15:54;8.43;;;1.87;;
24159;SDS011;62385;41.594;23.808;2024-03-06T06:18:20;3.40;;;1.97;;
24159;SDS011;62385;41.594;23.808;2024-03-06T06:20:46;1.60;;;1.47;;
24159;SDS011;62385;41.594;23.808;2024-03-06T06:23:11;2.37;;;1.43;;
24159;SDS011;62385;41.594;23.808;2024-03-06T06:25:37;3.30;;;1.97;;
24159;SDS011;62385;41.594;23.808;2024-03-06T06:28:02;9.33;;;2.30;;
24159;SDS011;62385;41.594;23.808;2024-03-06T06:30:29;2.03;;;1.93;;
24159;SDS011;62385;41.594;23.808;2024-03-06T06:32:54;2.00;;;1.60;;
24159;SDS011;62385;41.594;23.808;2024-03-06T06:35:20;4.00;;;2.53;;
24159;SDS011;62385;41.594;23.808;2024-03-06T06:37:47;1.03;;;0.93;;
24159;SDS011;62385;41.594;23.808;2024-03-06T06:40:13;6.63;;;2.07;;
24159;SDS011;62385;41.594;23.808;2024-03-06T06:42:43;0.30;;;0.30;;
24159;SDS011;62385;41.594;23.808;2024-03-06T06:45:15;0.40;;;0.30;;
24159;SDS011;62385;41.594;23.808;2024-03-06T06:47:41;0.80;;;0.53;;
24159;SDS011;62385;41.594;23.808;2024-03-06T06:50:07;1.33;;;1.07;;
24159;SDS011;62385;41.594;23.808;2024-03-06T06:52:34;1.53;;;0.53;;
24159;SDS011;62385;41.594;23.808;2024-03-06T06:55:00;1.97;;;1.70;;
24159;SDS011;62385;41.594;23.808;2024-03-06T06:57:26;1.27;;;0.90;;
24159;SDS011;62385;41.594;23.808;2024-03-06T06:59:52;4.47;;;1.50;;
24159;SDS011;62385;41.594;23.808;2024-03-06T07:02:17;2.00;;;0.70;;
24159;SDS011;62385;41.594;23.808;2024-03-06T07:04:43;1.87;;;1.77;;
24159;SDS011;62385;41.594;23.808;2024-03-06T07:10:32;1.07;;;1.03;;
24159;SDS011;62385;41.594;23.808;2024-03-06T07:13:00;0.60;;;0.53;;
24159;SDS011;62385;41.594;23.808;2024-03-06T07:15:25;1.07;;;0.93;;
24159;SDS011;62385;41.594;23.808;2024-03-06T07:17:51;3.70;;;1.60;;
24159;SDS011;62385;41.594;23.808;2024-03-06T07:20:17;1.87;;;1.60;;
24159;SDS011;62385;41.594;23.808;2024-03-06T07:22:43;4.43;;;3.97;;
24159;SDS011;62385;41.594;23.808;2024-03-06T07:25:08;3.30;;;3.00;;
24159;SDS011;62385;41.594;23.808;2024-03-06T07:27:34;5.13;;;3.67;;
24159;SDS011;62385;41.594;23.808;2024-03-06T07:30:00;4.93;;;2.80;;
24159;SDS011;62385;41.594;23.808;2024-03-06T07:32:26;6.43;;;2.20;;
24159;SDS011;62385;41.594;23.808;2024-03-06T07:34:52;3.03;;;2.63;;
24159;SDS011;62385;41.594;23.808;2024-03-06T07:37:18;4.43;;;2.53;;
24159;SDS011;62385;41.594;23.808;2024-03-06T07:39:44;1.67;;;1.30;;
24159;SDS011;62385;41.594;23.808;2024-03-06T07:42:10;0.43;;;0.43;;
24159;SDS011;62385;41.594;23.808;2024-03-06T07:44:36;0.50;;;0.47;;
24159;SDS011;62385;41.594;23.808;2024-03-06T07:47:02;0.23;;;0.23;;
24159;SDS011;62385;41.594;23.808;2024-03-06T07:49:28;1.50;;;1.40;;
24159;SDS011;62385;41.594;23.808;2024-03-06T07:51:54;4.07;;;2.97;;
24159;SDS011;62385;41.594;23.808;2024-03-06T07:54:20;14.33;;;5.37;;
24159;SDS011;62385;41.594;23.808;2024-03-06T07:56:45;4.00;;;2.50;;
24159;SDS011;62385;41.594;23.808;2024-03-06T07:59:12;3.13;;;0.97;;
24159;SDS011;62385;41.594;23.808;2024-03-06T08:01:38;7.27;;;3.40;;
24159;SDS011;62385;41.594;23.808;2024-03-06T08:04:04;3.43;;;3.10;;
24159;SDS011;62385;41.594;23.808;2024-03-06T08:06:29;3.07;;;1.23;;
24159;SDS011;62385;41.594;23.808;2024-03-06T08:08:58;3.33;;;1.13;;
24159;SDS011;62385;41.594;23.808;2024-03-06T08:11:24;0.80;;;0.40;;
24159;SDS011;62385;41.594;23.808;2024-03-06T08:13:49;1.63;;;1.40;;
24159;SDS011;62385;41.594;23.808;2024-03-06T08:16:21;6.23;;;2.30;;
24159;SDS011;62385;41.594;23.808;2024-03-06T08:18:47;2.90;;;2.43;;
24159;SDS011;62385;41.594;23.808;2024-03-06T08:21:13;1.07;;;0.97;;
24159;SDS011;62385;41.594;23.808;2024-03-06T08:23:38;3.60;;;2.03;;
24159;SDS011;62385;41.594;23.808;2024-03-06T08:26:04;5.27;;;1.80;;
24159;SDS011;62385;41.594;23.808;2024-03-06T08:28:29;3.88;;;2.97;;
24159;SDS011;62385;41.594;23.808;2024-03-06T08:30:56;2.08;;;1.98;;
24159;SDS011;62385;41.594;23.808;2024-03-06T08:33:21;1.13;;;0.70;;
24159;SDS011;62385;41.594;23.808;2024-03-06T08:35:48;0.65;;;0.65;;
24159;SDS011;62385;41.594;23.808;2024-03-06T08:38:13;0.98;;;0.93;;
24159;SDS011;62385;41.594;23.808;2024-03-06T08:40:39;1.70;;;1.25;;
24159;SDS011;62385;41.594;23.808;2024-03-06T08:43:07;0.20;;;0.10;;
24159;SDS011;62385;41.594;23.808;2024-03-06T08:45:34;0.25;;;0.17;;
24159;SDS011;62385;41.594;23.808;2024-03-06T08:47:59;1.90;;;1.48;;
24159;SDS011;62385;41.594;23.808;2024-03-06T08:50:25;8.17;;;0.97;;
24159;SDS011;62385;41.594;23.808;2024-03-06T08:55:02;0.68;;;0.68;;
24159;SDS011;62385;41.594;23.808;2024-03-06T08:57:32;0.70;;;0.70;;
24159;SDS011;62385;41.594;23.808;2024-03-06T08:59:58;1.40;;;0.60;;
24159;SDS011;62385;41.594;23.808;2024-03-06T09:02:24;1.83;;;1.17;;
24159;SDS011;62385;41.594;23.808;2024-03-06T09:04:50;0.77;;;0.77;;
24159;SDS011;62385;41.594;23.808;2024-03-06T09:07:19;1.42;;;0.60;;
24159;SDS011;62385;41.594;23.808;2024-03-06T09:09:49;0.55;;;0.55;;
24159;SDS011;62385;41.594;23.808;2024-03-06T09:12:15;0.75;;;0.75;;
24159;SDS011;62385;41.594;23.808;2024-03-06T09:14:41;0.45;;;0.45;;
24159;SDS011;62385;41.594;23.808;2024-03-06T09:17:07;2.45;;;0.82;;
24159;SDS011;62385;41.594;23.808;2024-03-06T09:19:35;3.30;;;1.13;;
24159;SDS011;62385;41.594;23.808;2024-03-06T09:22:01;6.20;;;1.95;;
24159;SDS011;62385;41.594;23.808;2024-03-06T09:24:28;0.85;;;0.68;;
24159;SDS011;62385;41.594;23.808;2024-03-06T09:26:54;0.75;;;0.32;;
24159;SDS011;62385;41.594;23.808;2024-03-06T09:29:19;1.65;;;1.55;;
24159;SDS011;62385;41.594;23.808;2024-03-06T09:31:45;1.85;;;1.70;;
24159;SDS011;62385;41.594;23.808;2024-03-06T09:34:12;0.52;;;0.52;;
24159;SDS011;62385;41.594;23.808;2024-03-06T09:36:45;0.88;;;0.88;;
24159;SDS011;62385;41.594;23.808;2024-03-06T09:39:12;1.17;;;1.00;;
24159;SDS011;62385;41.594;23.808;2024-03-06T09:41:41;1.08;;;0.98;;
24159;SDS011;62385;41.594;23.808;2024-03-06T09:44:11;0.20;;;0.20;;
24159;SDS011;62385;41.594;23.808;2024-03-06T09:46:37;1.02;;;0.47;;
24159;SDS011;62385;41.594;23.808;2024-03-06T09:49:03;0.40;;;0.40;;
24159;SDS011;62385;41.594;23.808;2024-03-06T09:51:30;0.88;;;0.32;;
24159;SDS011;62385;41.594;23.808;2024-03-06T09:53:56;0.20;;;0.17;;
24159;SDS011;62385;41.594;23.808;2024-03-06T09:56:23;0.43;;;0.30;;
24159;SDS011;62385;41.594;23.808;2024-03-06T09:58:49;0.68;;;0.68;;
24159;SDS011;62385;41.594;23.808;2024-03-06T10:01:15;1.42;;;0.80;;
24159;SDS011;62385;41.594;23.808;2024-03-06T10:03:42;0.20;;;0.15;;
24159;SDS011;62385;41.594;23.808;2024-03-06T10:06:08;1.85;;;1.40;;
24159;SDS011;62385;41.594;23.808;2024-03-06T10:08:34;0.20;;;0.20;;
24159;SDS011;62385;41.594;23.808;2024-03-06T10:11:00;0.20;;;0.17;;
24159;SDS011;62385;41.594;23.808;2024-03-06T10:13:27;0.22;;;0.22;;
24159;SDS011;62385;41.594;23.808;2024-03-06T10:15:57;0.35;;;0.35;;
24159;SDS011;62385;41.594;23.808;2024-03-06T10:18:28;2.42;;;0.75;;
24159;SDS011;62385;41.594;23.808;2024-03-06T10:20:55;0.95;;;0.50;;
24159;SDS011;62385;41.594;23.808;2024-03-06T10:23:21;0.20;;;0.15;;
24159;SDS011;62385;41.594;23.808;2024-03-06T10:25:47;1.85;;;0.63;;
24159;SDS011;62385;41.594;23.808;2024-03-06T10:28:21;0.45;;;0.45;;
24159;SDS011;62385;41.594;23.808;2024-03-06T10:30:48;0.30;;;0.30;;
24159;SDS011;62385;41.594;23.808;2024-03-06T10:33:16;0.73;;;0.73;;
24159;SDS011;62385;41.594;23.808;2024-03-06T10:35:46;0.47;;;0.25;;
24159;SDS011;62385;41.594;23.808;2024-03-06T10:38:16;0.90;;;0.85;;
24159;SDS011;62385;41.594;23.808;2024-03-06T10:40:45;1.95;;;0.15;;
24159;SDS011;62385;41.594;23.808;2024-03-06T10:43:11;1.20;;;0.45;;
24159;SDS011;62385;41.594;23.808;2024-03-06T10:46:00;0.20;;;0.20;;
24159;SDS011;62385;41.594;23.808;2024-03-06T10:48:29;2.53;;;0.55;;
24159;SDS011;62385;41.594;23.808;2024-03-06T10:50:56;0.40;;;0.40;;
24159;SDS011;62385;41.594;23.808;2024-03-06T10:53:23;19.95;;;1.30;;
24159;SDS011;62385;41.594;23.808;2024-03-06T10:55:51;0.68;;;0.65;;
24159;SDS011;62385;41.594;23.808;2024-03-06T10:58:18;0.73;;;0.73;;
24159;SDS011;62385;41.594;23.808;2024-03-06T11:00:45;0.50;;;0.50;;
24159;SDS011;62385;41.594;23.808;2024-03-06T11:03:15;0.63;;;0.45;;
24159;SDS011;62385;41.594;23.808;2024-03-06T11:05:42;1.10;;;0.43;;
24159;SDS011;62385;41.594;23.808;2024-03-06T11:08:11;0.63;;;0.63;;
24159;SDS011;62385;41.594;23.808;2024-03-06T11:10:38;0.38;;;0.32;;
24159;SDS011;62385;41.594;23.808;2024-03-06T11:13:09;0.20;;;0.17;;
24159;SDS011;62385;41.594;23.808;2024-03-06T11:15:57;0.40;;;0.40;;
24159;SDS011;62385;41.594;23.808;2024-03-06T11:23:27;2.17;;;0.43;;
24159;SDS011;62385;41.594;23.808;2024-03-06T11:31:10;1.98;;;0.80;;
24159;SDS011;62385;41.594;23.808;2024-03-06T11:33:46;0.47;;;0.25;;
24159;SDS011;62385;41.594;23.808;2024-03-06T11:41:32;0.60;;;0.60;;
24159;SDS011;62385;41.594;23.808;2024-03-06T11:44:01;0.85;;;0.85;;
24159;SDS011;62385;41.594;23.808;2024-03-06T11:49:23;0.40;;;0.38;;
24159;SDS011;62385;41.594;23.808;2024-03-06T11:51:51;0.50;;;0.40;;
24159;SDS011;62385;41.594;23.808;2024-03-06T11:54:25;0.40;;;0.40;;
24159;SDS011;62385;41.594;23.808;2024-03-06T11:56:53;1.45;;;0.90;;
24159;SDS011;62385;41.594;23.808;2024-03-06T11:59:24;0.47;;;0.32;;
24159;SDS011;62385;41.594;23.808;2024-03-06T12:01:51;2.47;;;0.70;;
24159;SDS011;62385;41.594;23.808;2024-03-06T12:04:23;3.92;;;0.63;;
24159;SDS011;62385;41.594;23.808;2024-03-06T12:06:50;0.60;;;0.60;;
24159;SDS011;62385;41.594;23.808;2024-03-06T12:09:15;0.75;;;0.75;;
24159;SDS011;62385;41.594;23.808;2024-03-06T12:11:42;0.80;;;0.80;;
24159;SDS011;62385;41.594;23.808;2024-03-06T12:14:14;2.33;;;0.35;;
24159;SDS011;62385;41.594;23.808;2024-03-06T12:16:43;21.70;;;0.95;;
24159;SDS011;62385;41.594;23.808;2024-03-06T12:19:09;2.33;;;0.50;;
24159;SDS011;62385;41.594;23.808;2024-03-06T12:21:35;0.52;;;0.52;;
24159;SDS011;62385;41.594;23.808;2024-03-06T12:24:03;0.20;;;0.10;;
24159;SDS011;62385;41.594;23.808;2024-03-06T12:26:33;6.45;;;0.75;;
24159;SDS011;62385;41.594;23.808;2024-03-06T12:29:08;2.42;;;1.50;;
24159;SDS011;62385;41.594;23.808;2024-03-06T12:31:36;1.27;;;0.40;;
24159;SDS011;62385;41.594;23.808;2024-03-06T12:34:03;1.10;;;0.85;;
24159;SDS011;62385;41.594;23.808;2024-03-06T12:36:31;0.93;;;0.25;;
24159;SDS011;62385;41.594;23.808;2024-03-06T12:38:58;0.30;;;0.30;;
24159;SDS011;62385;41.594;23.808;2024-03-06T12:41:26;0.85;;;0.45;;
24159;SDS011;62385;41.594;23.808;2024-03-06T12:43:52;0.70;;;0.65;;
24159;SDS011;62385;41.594;23.808;2024-03-06T12:46:18;0.52;;;0.45;;
24159;SDS011;62385;41.594;23.808;2024-03-06T12:48:44;0.77;;;0.77;;
24159;SDS011;62385;41.594;23.808;2024-03-06T12:51:10;0.43;;;0.43;;
24159;SDS011;62385;41.594;23.808;2024-03-06T12:53:36;0.35;;;0.35;;
24159;SDS011;62385;41.594;23.808;2024-03-06T12:56:02;1.73;;;0.77;;
24159;SDS011;62385;41.594;23.808;2024-03-06T12:58:28;1.60;;;1.13;;
24159;SDS011;62385;41.594;23.808;2024-03-06T13:00:56;0.60;;;0.35;;
24159;SDS011;62385;41.594;23.808;2024-03-06T13:03:22;3.72;;;0.65;;
24159;SDS011;62385;41.594;23.808;2024-03-06T13:05:48;0.75;;;0.60;;
24159;SDS011;62385;41.594;23.808;2024-03-06T13:08:14;0.40;;;0.38;;
24159;SDS011;62385;41.594;23.808;2024-03-06T13:10:41;0.43;;;0.30;;
24159;SDS011;62385;41.594;23.808;2024-03-06T13:13:07;0.20;;;0.20;;
24159;SDS011;62385;41.594;23.808;2024-03-06T13:15:33;1.40;;;0.68;;
24159;SDS011;62385;41.594;23.808;2024-03-06T13:18:04;1.48;;;0.98;;
24159;SDS011;62385;41.594;23.808;2024-03-06T13:20:31;0.40;;;0.40;;
24159;SDS011;62385;41.594;23.808;2024-03-06T13:22:56;6.82;;;1.05;;
24159;SDS011;62385;41.594;23.808;2024-03-06T13:25:22;0.52;;;0.47;;
24159;SDS011;62385;41.594;23.808;2024-03-06T13:27:49;0.60;;;0.30;;
24159;SDS011;62385;41.594;23.808;2024-03-06T13:30:17;0.28;;;0.20;;
24159;SDS011;62385;41.594;23.808;2024-03-06T13:36:00;0.43;;;0.43;;
24159;SDS011;62385;41.594;23.808;2024-03-06T13:38:26;0.73;;;0.73;;
24159;SDS011;62385;41.594;23.808;2024-03-06T13:40:51;0.77;;;0.60;;
24159;SDS011;62385;41.594;23.808;2024-03-06T13:43:17;0.40;;;0.40;;
24159;SDS011;62385;41.594;23.808;2024-03-06T13:45:48;0.20;;;0.20;;
24159;SDS011;62385;41.594;23.808;2024-03-06T13:48:15;0.70;;;0.70;;
24159;SDS011;62385;41.594;23.808;2024-03-06T13:50:44;0.85;;;0.85;;
24159;SDS011;62385;41.594;23.808;2024-03-06T13:53:11;0.73;;;0.57;;
24159;SDS011;62385;41.594;23.808;2024-03-06T13:55:37;0.20;;;0.20;;
24159;SDS011;62385;41.594;23.808;2024-03-06T13:58:03;0.30;;;0.30;;
24159;SDS011;62385;41.594;23.808;2024-03-06T14:00:29;0.73;;;0.65;;
24159;SDS011;62385;41.594;23.808;2024-03-06T14:02:55;0.43;;;0.43;;
24159;SDS011;62385;41.594;23.808;2024-03-06T14:05:20;1.05;;;0.82;;
24159;SDS011;62385;41.594;23.808;2024-03-06T14:07:52;3.30;;;0.70;;
24159;SDS011;62385;41.594;23.808;2024-03-06T14:10:18;1.52;;;1.42;;
24159;SDS011;62385;41.594;23.808;2024-03-06T14:12:45;0.63;;;0.63;;
24159;SDS011;62385;41.594;23.808;2024-03-06T14:15:11;1.08;;;0.90;;
24159;SDS011;62385;41.594;23.808;2024-03-06T14:17:41;0.98;;;0.68;;
24159;SDS011;62385;41.594;23.808;2024-03-06T14:20:07;3.45;;;0.47;;
24159;SDS011;62385;41.594;23.808;2024-03-06T14:22:33;0.80;;;0.55;;
24159;SDS011;62385;41.594;23.808;2024-03-06T14:25:00;1.08;;;1.00;;
24159;SDS011;62385;41.594;23.808;2024-03-06T14:27:26;0.50;;;0.50;;
24159;SDS011;62385;41.594;23.808;2024-03-06T14:29:51;0.63;;;0.50;;
24159;SDS011;62385;41.594;23.808;2024-03-06T14:32:19;4.60;;;0.68;;
24159;SDS011;62385;41.594;23.808;2024-03-06T14:36:41;2.17;;;1.05;;
24159;SDS011;62385;41.594;23.808;2024-03-06T14:39:07;0.22;;;0.15;;
24159;SDS011;62385;41.594;23.808;2024-03-06T14:41:35;2.58;;;1.13;;
24159;SDS011;62385;41.594;23.808;2024-03-06T14:44:01;1.10;;;0.85;;
24159;SDS011;62385;41.594;23.808;2024-03-06T14:46:26;0.30;;;0.30;;
24159;SDS011;62385;41.594;23.808;2024-03-06T14:48:53;0.50;;;0.50;;
24159;SDS011;62385;41.594;23.808;2024-03-06T14:51:19;0.88;;;0.43;;
24159;SDS011;62385;41.594;23.808;2024-03-06T14:53:45;0.40;;;0.30;;
24159;SDS011;62385;41.594;23.808;2024-03-06T14:56:11;0.50;;;0.50;;
24159;SDS011;62385;41.594;23.808;2024-03-06T14:58:36;0.65;;;0.65;;
24159;SDS011;62385;41.594;23.808;2024-03-06T15:01:03;2.30;;;1.05;;
24159;SDS011;62385;41.594;23.808;2024-03-06T15:03:29;0.47;;;0.47;;
24159;SDS011;62385;41.594;23.808;2024-03-06T15:05:55;0.45;;;0.45;;